Time;durP1;ratioP1;P1;durP2;ratioP2;P2;SDS_P1;SDS_P2;PMS_P1;PMS_P2;Temp;Humidity;BMP_temperature;BMP_pressure;BME280_temperature;BME280_humidity;BME280_pressure;Samples;Min_cycle;Max_cycle;Signal;HPM_P1;HPM_P2
2022/08/23 00:00:06;;;;;;;0.5;0.5;;;;;;;21.8;100.0;101090;;;;
2022/08/23 00:01:00;;;;;;;0.5;0.5;;;;;;;21.8;100.0;101090;;;;
2022/08/23 00:02:01;;;;;;;0.5;0.5;;;;;;;21.8;100.0;101100;;;;
2022/08/23 00:03:02;;;;;;;0.5;0.5;;;;;;;21.8;100.0;101100;;;;
2022/08/23 00:04:08;;;;;;;0.5;0.5;;;;;;;21.8;100.0;101090;;;;
2022/08/23 00:05:10;;;;;;;0.5;0.5;;;;;;;21.8;100.0;101090;;;;
2022/08/23 00:06:00;;;;;;;0.5;0.5;;;;;;;21.8;100.0;101090;;;;
2022/08/23 00:07:00;;;;;;;0.5;0.5;;;;;;;21.8;100.0;101090;;;;
2022/08/23 00:08:00;;;;;;;0.5;0.5;;;;;;;21.7;100.0;101090;;;;
2022/08/23 00:09:00;;;;;;;0.5;0.5;;;;;;;21.7;100.0;101090;;;;
2022/08/23 00:10:00;;;;;;;0.5;0.5;;;;;;;21.8;100.0;101090;;;;
2022/08/23 00:11:00;;;;;;;0.5;0.5;;;;;;;21.8;100.0;101090;;;;
2022/08/23 00:12:07;;;;;;;0.5;0.5;;;;;;;21.8;100.0;101090;;;;
2022/08/23 00:13:00;;;;;;;0.5;0.5;;;;;;;21.8;100.0;101090;;;;
2022/08/23 00:14:02;;;;;;;0.5;0.5;;;;;;;21.7;100.0;101090;;;;
2022/08/23 00:15:00;;;;;;;0.5;0.5;;;;;;;21.7;100.0;101090;;;;
2022/08/23 00:16:00;;;;;;;0.5;0.5;;;;;;;21.6;100.0;101090;;;;
2022/08/23 00:17:00;;;;;;;0.1;0.1;;;;;;;21.6;100.0;101090;;;;
2022/08/23 00:18:00;;;;;;;0.1;0.1;;;;;;;21.7;100.0;101090;;;;
2022/08/23 00:19:01;;;;;;;0.1;0.1;;;;;;;21.7;100.0;101090;;;;
2022/08/23 00:20:01;;;;;;;0.1;0.1;;;;;;;21.6;100.0;101090;;;;
2022/08/23 00:21:00;;;;;;;0.1;0.1;;;;;;;21.6;100.0;101090;;;;
2022/08/23 00:22:00;;;;;;;0.1;0.1;;;;;;;21.6;100.0;101090;;;;
2022/08/23 00:23:00;;;;;;;0.1;0.1;;;;;;;21.6;100.0;101090;;;;
2022/08/23 00:24:00;;;;;;;0.1;0.1;;;;;;;21.5;100.0;101090;;;;
2022/08/23 00:25:00;;;;;;;0.1;0.1;;;;;;;21.5;100.0;101090;;;;
2022/08/23 00:26:01;;;;;;;0.1;0.1;;;;;;;21.5;100.0;101090;;;;
2022/08/23 00:27:00;;;;;;;0.1;0.1;;;;;;;21.5;100.0;101090;;;;
2022/08/23 00:28:00;;;;;;;0.1;0.1;;;;;;;21.5;100.0;101090;;;;
2022/08/23 00:29:00;;;;;;;0.1;0.1;;;;;;;21.5;100.0;101090;;;;
2022/08/23 00:30:00;;;;;;;0.1;0.1;;;;;;;21.4;100.0;101090;;;;
2022/08/23 00:31:00;;;;;;;0.1;0.1;;;;;;;21.4;100.0;101090;;;;
2022/08/23 00:32:00;;;;;;;0.1;0.1;;;;;;;21.3;100.0;101080;;;;
2022/08/23 00:33:00;;;;;;;0.1;0.1;;;;;;;21.3;100.0;101080;;;;
2022/08/23 00:34:00;;;;;;;0.1;0.1;;;;;;;21.2;100.0;101090;;;;
2022/08/23 00:35:00;;;;;;;0.1;0.1;;;;;;;21.2;100.0;101090;;;;
2022/08/23 00:36:00;;;;;;;0.1;0.1;;;;;;;21.3;100.0;101080;;;;
2022/08/23 00:37:00;;;;;;;0.1;0.1;;;;;;;21.3;100.0;101080;;;;
2022/08/23 00:38:10;;;;;;;0.1;0.1;;;;;;;21.4;100.0;101080;;;;
2022/08/23 00:39:00;;;;;;;0.1;0.1;;;;;;;21.4;100.0;101080;;;;
2022/08/23 00:40:00;;;;;;;0.1;0.1;;;;;;;21.3;100.0;101080;;;;
2022/08/23 00:41:00;;;;;;;0.1;0.1;;;;;;;21.3;100.0;101080;;;;
2022/08/23 00:47:38;;;;;;;0.1;0.1;;;;;;;21.2;100.0;101090;;;;
2022/08/23 00:48:01;;;;;;;0.1;0.1;;;;;;;21.2;100.0;101090;;;;
2022/08/23 00:49:02;;;;;;;0.1;0.1;;;;;;;21.2;100.0;101090;;;;
2022/08/23 00:50:17;;;;;;;0.1;0.1;;;;;;;21.2;100.0;101080;;;;
2022/08/23 00:51:00;;;;;;;0.1;0.1;;;;;;;21.2;100.0;101080;;;;
2022/08/23 00:52:05;;;;;;;0.1;0.1;;;;;;;21.2;100.0;101090;;;;
2022/08/23 00:53:11;;;;;;;0.1;0.1;;;;;;;21.1;100.0;101090;;;;
2022/08/23 00:54:01;;;;;;;0.1;0.1;;;;;;;21.1;100.0;101090;;;;
2022/08/23 00:55:00;;;;;;;0.1;0.1;;;;;;;21.1;100.0;101090;;;;
2022/08/23 00:56:02;;;;;;;0.1;0.1;;;;;;;21.2;100.0;101090;;;;
2022/08/23 00:57:01;;;;;;;0.1;0.1;;;;;;;21.2;100.0;101090;;;;
2022/08/23 00:58:00;;;;;;;0.1;0.1;;;;;;;21.1;100.0;101090;;;;
2022/08/23 00:59:00;;;;;;;0.1;0.1;;;;;;;21.1;100.0;101090;;;;
2022/08/23 01:00:00;;;;;;;0.1;0.1;;;;;;;21.0;100.0;101090;;;;
2022/08/23 01:01:01;;;;;;;0.1;0.1;;;;;;;21.0;100.0;101090;;;;
2022/08/23 01:02:00;;;;;;;0.1;0.1;;;;;;;21.1;100.0;101090;;;;
2022/08/23 01:03:02;;;;;;;0.1;0.1;;;;;;;21.1;100.0;101090;;;;
2022/08/23 01:04:05;;;;;;;0.1;0.1;;;;;;;21.1;100.0;101090;;;;
2022/08/23 01:05:00;;;;;;;0.1;0.1;;;;;;;21.1;100.0;101090;;;;
2022/08/23 01:06:10;;;;;;;0.1;0.1;;;;;;;21.0;100.0;101090;;;;
2022/08/23 01:07:03;;;;;;;0.1;0.1;;;;;;;21.0;100.0;101090;;;;
2022/08/23 01:08:00;;;;;;;0.1;0.1;;;;;;;21.0;100.0;101090;;;;
2022/08/23 01:09:02;;;;;;;0.1;0.1;;;;;;;21.0;100.0;101090;;;;
2022/08/23 01:10:03;;;;;;;0.1;0.1;;;;;;;21.0;100.0;101090;;;;
2022/08/23 01:11:09;;;;;;;0.1;0.1;;;;;;;21.0;100.0;101090;;;;
2022/08/23 01:12:07;;;;;;;0.1;0.1;;;;;;;21.0;100.0;101090;;;;
2022/08/23 01:13:04;;;;;;;0.1;0.1;;;;;;;21.0;100.0;101090;;;;
2022/08/23 01:14:05;;;;;;;0.1;0.1;;;;;;;21.0;100.0;101090;;;;
2022/08/23 01:15:02;;;;;;;0.1;0.1;;;;;;;21.0;100.0;101090;;;;
2022/08/23 01:16:04;;;;;;;0.4;0.4;;;;;;;21.0;100.0;101100;;;;
2022/08/23 01:17:04;;;;;;;0.4;0.4;;;;;;;21.0;100.0;101100;;;;
2022/08/23 01:18:02;;;;;;;0.4;0.4;;;;;;;21.0;100.0;101100;;;;
2022/08/23 01:19:01;;;;;;;0.4;0.4;;;;;;;21.0;100.0;101100;;;;
2022/08/23 01:20:10;;;;;;;0.4;0.4;;;;;;;20.9;100.0;101100;;;;
2022/08/23 01:21:12;;;;;;;0.4;0.4;;;;;;;21.0;100.0;101100;;;;
2022/08/23 01:22:08;;;;;;;0.4;0.4;;;;;;;21.0;100.0;101100;;;;
2022/08/23 01:23:06;;;;;;;0.4;0.4;;;;;;;21.0;100.0;101100;;;;
2022/08/23 01:24:02;;;;;;;0.4;0.4;;;;;;;21.0;100.0;101100;;;;
2022/08/23 01:25:08;;;;;;;0.4;0.4;;;;;;;20.9;100.0;101090;;;;
2022/08/23 01:26:00;;;;;;;0.4;0.4;;;;;;;20.9;100.0;101090;;;;
2022/08/23 01:27:00;;;;;;;0.4;0.4;;;;;;;20.9;100.0;101090;;;;
2022/08/23 01:28:00;;;;;;;0.4;0.4;;;;;;;20.9;100.0;101090;;;;
2022/08/23 01:29:01;;;;;;;0.4;0.4;;;;;;;20.9;100.0;101090;;;;
2022/08/23 01:30:00;;;;;;;0.4;0.4;;;;;;;20.9;100.0;101090;;;;
2022/08/23 01:31:01;;;;;;;0.4;0.4;;;;;;;20.9;100.0;101090;;;;
2022/08/23 01:32:00;;;;;;;0.4;0.4;;;;;;;21.0;100.0;101100;;;;
2022/08/23 01:33:02;;;;;;;0.4;0.4;;;;;;;21.0;100.0;101100;;;;
2022/08/23 01:34:02;;;;;;;0.4;0.4;;;;;;;21.0;100.0;101090;;;;
2022/08/23 01:35:00;;;;;;;0.4;0.4;;;;;;;21.0;100.0;101090;;;;
2022/08/23 01:36:04;;;;;;;0.3;0.3;;;;;;;20.9;100.0;101090;;;;
2022/08/23 01:37:00;;;;;;;0.3;0.3;;;;;;;20.9;100.0;101090;;;;
2022/08/23 01:38:00;;;;;;;0.3;0.3;;;;;;;20.9;100.0;101090;;;;
2022/08/23 01:39:01;;;;;;;0.3;0.3;;;;;;;20.9;100.0;101090;;;;
2022/08/23 01:40:00;;;;;;;0.3;0.3;;;;;;;20.9;100.0;101090;;;;
2022/08/23 01:41:00;;;;;;;0.3;0.3;;;;;;;20.9;100.0;101090;;;;
2022/08/23 01:42:07;;;;;;;0.3;0.3;;;;;;;20.9;100.0;101090;;;;
2022/08/23 01:43:00;;;;;;;0.3;0.3;;;;;;;20.9;100.0;101090;;;;
2022/08/23 01:44:00;;;;;;;0.3;0.3;;;;;;;20.9;100.0;101090;;;;
2022/08/23 01:45:00;;;;;;;0.3;0.3;;;;;;;20.9;100.0;101090;;;;
2022/08/23 01:46:10;;;;;;;0.3;0.3;;;;;;;20.9;100.0;101090;;;;
2022/08/23 01:47:00;;;;;;;0.3;0.3;;;;;;;20.9;100.0;101090;;;;
2022/08/23 01:48:00;;;;;;;0.3;0.3;;;;;;;20.9;100.0;101090;;;;
2022/08/23 01:49:04;;;;;;;0.3;0.3;;;;;;;20.9;100.0;101090;;;;
2022/08/23 01:50:00;;;;;;;0.3;0.3;;;;;;;20.9;100.0;101090;;;;
2022/08/23 01:51:00;;;;;;;0.3;0.3;;;;;;;20.9;100.0;101090;;;;
2022/08/23 01:52:00;;;;;;;0.3;0.3;;;;;;;20.9;100.0;101090;;;;
2022/08/23 01:53:01;;;;;;;0.3;0.3;;;;;;;20.9;100.0;101090;;;;
2022/08/23 01:54:00;;;;;;;0.3;0.3;;;;;;;20.9;100.0;101090;;;;
2022/08/23 01:55:00;;;;;;;0.3;0.3;;;;;;;20.9;100.0;101090;;;;
2022/08/23 01:56:01;;;;;;;0.3;0.3;;;;;;;20.8;100.0;101090;;;;
2022/08/23 01:57:00;;;;;;;0.3;0.3;;;;;;;20.8;100.0;101090;;;;
2022/08/23 01:58:02;;;;;;;0.3;0.3;;;;;;;20.8;100.0;101090;;;;
2022/08/23 01:59:01;;;;;;;0.3;0.3;;;;;;;20.8;100.0;101090;;;;
2022/08/23 02:00:00;;;;;;;0.3;0.3;;;;;;;20.8;100.0;101090;;;;
2022/08/23 02:01:00;;;;;;;0.3;0.3;;;;;;;20.8;100.0;101090;;;;
2022/08/23 02:02:00;;;;;;;0.3;0.3;;;;;;;20.8;100.0;101080;;;;
2022/08/23 02:03:01;;;;;;;0.3;0.3;;;;;;;20.8;100.0;101080;;;;
2022/08/23 02:04:05;;;;;;;0.3;0.3;;;;;;;20.8;100.0;101080;;;;
2022/08/23 02:05:00;;;;;;;0.3;0.3;;;;;;;20.8;100.0;101080;;;;
2022/08/23 02:06:00;;;;;;;0.3;0.3;;;;;;;20.7;100.0;101080;;;;
2022/08/23 02:07:00;;;;;;;0.3;0.3;;;;;;;20.7;100.0;101080;;;;
2022/08/23 02:08:59;;;;;;;0.3;0.3;;;;;;;20.7;100.0;101090;;;;
2022/08/23 02:09:00;;;;;;;0.3;0.3;;;;;;;20.7;100.0;101090;;;;
2022/08/23 02:10:02;;;;;;;0.3;0.3;;;;;;;20.6;100.0;101090;;;;
2022/08/23 02:11:06;;;;;;;0.3;0.3;;;;;;;20.6;100.0;101090;;;;
2022/08/23 02:12:00;;;;;;;0.3;0.3;;;;;;;20.6;100.0;101090;;;;
2022/08/23 02:13:00;;;;;;;0.3;0.3;;;;;;;20.6;100.0;101090;;;;
2022/08/23 02:14:02;;;;;;;0.3;0.3;;;;;;;20.4;100.0;101090;;;;
2022/08/23 02:15:00;;;;;;;0.3;0.3;;;;;;;20.4;100.0;101090;;;;
2022/08/23 02:16:00;;;;;;;0.1;0.1;;;;;;;20.5;100.0;101090;;;;
2022/08/23 02:17:04;;;;;;;0.1;0.1;;;;;;;20.5;100.0;101090;;;;
2022/08/23 02:18:00;;;;;;;0.1;0.1;;;;;;;20.5;100.0;101090;;;;
2022/08/23 02:19:01;;;;;;;0.1;0.1;;;;;;;20.5;100.0;101090;;;;
2022/08/23 02:20:04;;;;;;;0.1;0.1;;;;;;;20.4;100.0;101090;;;;
2022/08/23 02:21:00;;;;;;;0.1;0.1;;;;;;;20.4;100.0;101090;;;;
2022/08/23 02:22:00;;;;;;;0.1;0.1;;;;;;;20.4;100.0;101090;;;;
2022/08/23 02:23:00;;;;;;;0.1;0.1;;;;;;;20.4;100.0;101090;;;;
2022/08/23 02:24:05;;;;;;;0.1;0.1;;;;;;;20.3;100.0;101090;;;;
2022/08/23 02:25:00;;;;;;;0.1;0.1;;;;;;;20.3;100.0;101090;;;;
2022/08/23 02:26:00;;;;;;;0.1;0.1;;;;;;;20.3;100.0;101090;;;;
2022/08/23 02:27:02;;;;;;;0.1;0.1;;;;;;;20.3;100.0;101090;;;;
2022/08/23 02:28:00;;;;;;;0.1;0.1;;;;;;;20.4;100.0;101090;;;;
2022/08/23 02:29:00;;;;;;;0.1;0.1;;;;;;;20.4;100.0;101090;;;;
2022/08/23 02:30:02;;;;;;;0.1;0.1;;;;;;;20.4;100.0;101090;;;;
2022/08/23 02:31:00;;;;;;;0.1;0.1;;;;;;;20.4;100.0;101090;;;;
2022/08/23 02:32:00;;;;;;;0.1;0.1;;;;;;;20.4;100.0;101090;;;;
2022/08/23 02:33:00;;;;;;;0.1;0.1;;;;;;;20.4;100.0;101090;;;;
2022/08/23 02:34:00;;;;;;;0.1;0.1;;;;;;;20.3;100.0;101090;;;;
2022/08/23 02:35:05;;;;;;;0.1;0.1;;;;;;;20.3;100.0;101090;;;;
2022/08/23 02:36:00;;;;;;;0.1;0.1;;;;;;;20.3;100.0;101090;;;;
2022/08/23 02:37:00;;;;;;;0.1;0.1;;;;;;;20.3;100.0;101090;;;;
2022/08/23 02:38:04;;;;;;;0.1;0.1;;;;;;;20.3;100.0;101090;;;;
2022/08/23 02:39:00;;;;;;;0.1;0.1;;;;;;;20.3;100.0;101090;;;;
2022/08/23 02:40:00;;;;;;;0.1;0.1;;;;;;;20.2;100.0;101090;;;;
2022/08/23 02:41:01;;;;;;;0.1;0.1;;;;;;;20.2;100.0;101090;;;;
2022/08/23 02:42:00;;;;;;;0.1;0.1;;;;;;;20.0;100.0;101090;;;;
2022/08/23 02:43:00;;;;;;;0.1;0.1;;;;;;;20.0;100.0;101090;;;;
2022/08/23 02:44:00;;;;;;;0.1;0.1;;;;;;;20.1;100.0;101090;;;;
2022/08/23 02:45:00;;;;;;;0.1;0.1;;;;;;;20.1;100.0;101090;;;;
2022/08/23 02:46:00;;;;;;;0.1;0.1;;;;;;;20.1;100.0;101090;;;;
2022/08/23 02:47:00;;;;;;;0.1;0.1;;;;;;;20.1;100.0;101090;;;;
2022/08/23 02:48:00;;;;;;;0.1;0.1;;;;;;;20.1;100.0;101090;;;;
2022/08/23 02:49:00;;;;;;;0.1;0.1;;;;;;;20.1;100.0;101090;;;;
2022/08/23 02:50:00;;;;;;;0.1;0.1;;;;;;;20.0;100.0;101090;;;;
2022/08/23 02:51:02;;;;;;;0.1;0.1;;;;;;;20.0;100.0;101090;;;;
2022/08/23 02:52:00;;;;;;;0.1;0.1;;;;;;;20.0;100.0;101100;;;;
2022/08/23 02:53:00;;;;;;;0.1;0.1;;;;;;;20.0;100.0;101100;;;;
2022/08/23 02:54:00;;;;;;;0.1;0.1;;;;;;;20.1;100.0;101100;;;;
2022/08/23 02:55:00;;;;;;;0.1;0.1;;;;;;;20.1;100.0;101100;;;;
2022/08/23 02:56:00;;;;;;;0.2;0.2;;;;;;;20.1;100.0;101100;;;;
2022/08/23 02:57:00;;;;;;;0.2;0.2;;;;;;;20.1;100.0;101100;;;;
2022/08/23 02:58:00;;;;;;;0.2;0.2;;;;;;;20.1;100.0;101110;;;;
2022/08/23 02:59:00;;;;;;;0.2;0.2;;;;;;;20.1;100.0;101110;;;;
2022/08/23 03:00:00;;;;;;;0.2;0.2;;;;;;;20.0;100.0;101110;;;;
2022/08/23 03:01:00;;;;;;;0.2;0.2;;;;;;;20.0;100.0;101110;;;;
2022/08/23 03:02:00;;;;;;;0.2;0.2;;;;;;;19.9;100.0;101110;;;;
2022/08/23 03:03:00;;;;;;;0.2;0.2;;;;;;;19.9;100.0;101110;;;;
2022/08/23 03:04:00;;;;;;;0.2;0.2;;;;;;;20.0;100.0;101110;;;;
2022/08/23 03:05:00;;;;;;;0.2;0.2;;;;;;;20.0;100.0;101110;;;;
2022/08/23 03:06:10;;;;;;;0.2;0.2;;;;;;;20.0;100.0;101120;;;;
2022/08/23 03:07:00;;;;;;;0.2;0.2;;;;;;;20.0;100.0;101120;;;;
2022/08/23 03:08:00;;;;;;;0.2;0.2;;;;;;;20.0;100.0;101120;;;;
2022/08/23 03:09:00;;;;;;;0.2;0.2;;;;;;;20.0;100.0;101120;;;;
2022/08/23 03:10:00;;;;;;;0.2;0.2;;;;;;;19.9;100.0;101120;;;;
2022/08/23 03:11:00;;;;;;;0.2;0.2;;;;;;;19.9;100.0;101120;;;;
2022/08/23 03:12:00;;;;;;;0.2;0.2;;;;;;;19.9;100.0;101130;;;;
2022/08/23 03:13:00;;;;;;;0.2;0.2;;;;;;;19.9;100.0;101130;;;;
2022/08/23 03:14:00;;;;;;;0.2;0.2;;;;;;;19.9;100.0;101130;;;;
2022/08/23 03:15:00;;;;;;;0.2;0.2;;;;;;;19.9;100.0;101130;;;;
2022/08/23 03:16:00;;;;;;;0.3;0.3;;;;;;;19.8;100.0;101130;;;;
2022/08/23 03:17:00;;;;;;;0.3;0.3;;;;;;;19.8;100.0;101130;;;;
2022/08/23 03:18:00;;;;;;;0.3;0.3;;;;;;;19.9;100.0;101130;;;;
2022/08/23 03:19:01;;;;;;;0.3;0.3;;;;;;;19.9;100.0;101130;;;;
2022/08/23 03:20:00;;;;;;;0.3;0.3;;;;;;;20.0;100.0;101130;;;;
2022/08/23 03:21:00;;;;;;;0.3;0.3;;;;;;;20.0;100.0;101130;;;;
2022/08/23 03:22:00;;;;;;;0.3;0.3;;;;;;;19.9;100.0;101130;;;;
2022/08/23 03:23:00;;;;;;;0.3;0.3;;;;;;;19.9;100.0;101130;;;;
2022/08/23 03:24:00;;;;;;;0.3;0.3;;;;;;;20.0;100.0;101130;;;;
2022/08/23 03:25:00;;;;;;;0.3;0.3;;;;;;;20.0;100.0;101130;;;;
2022/08/23 03:26:01;;;;;;;0.3;0.3;;;;;;;20.0;100.0;101130;;;;
2022/08/23 03:27:01;;;;;;;0.3;0.3;;;;;;;20.0;100.0;101130;;;;
2022/08/23 03:28:03;;;;;;;0.3;0.3;;;;;;;20.0;100.0;101140;;;;
2022/08/23 03:29:00;;;;;;;0.3;0.3;;;;;;;20.0;100.0;101140;;;;
2022/08/23 03:30:00;;;;;;;0.3;0.3;;;;;;;19.9;100.0;101140;;;;
2022/08/23 03:31:00;;;;;;;0.3;0.3;;;;;;;19.9;100.0;101140;;;;
2022/08/23 03:32:00;;;;;;;0.3;0.3;;;;;;;19.9;100.0;101130;;;;
2022/08/23 03:33:00;;;;;;;0.3;0.3;;;;;;;19.9;100.0;101130;;;;
2022/08/23 03:34:00;;;;;;;0.3;0.3;;;;;;;19.8;100.0;101140;;;;
2022/08/23 03:35:00;;;;;;;0.3;0.3;;;;;;;19.8;100.0;101140;;;;
2022/08/23 03:36:00;;;;;;;0.2;0.2;;;;;;;19.8;100.0;101140;;;;
2022/08/23 03:37:00;;;;;;;0.2;0.2;;;;;;;19.8;100.0;101140;;;;
2022/08/23 03:38:00;;;;;;;0.2;0.2;;;;;;;19.9;100.0;101140;;;;
2022/08/23 03:39:00;;;;;;;0.2;0.2;;;;;;;19.9;100.0;101140;;;;
2022/08/23 03:40:00;;;;;;;0.2;0.2;;;;;;;19.9;100.0;101140;;;;
2022/08/23 03:41:00;;;;;;;0.2;0.2;;;;;;;19.9;100.0;101140;;;;
2022/08/23 03:42:00;;;;;;;0.2;0.2;;;;;;;19.9;100.0;101140;;;;
2022/08/23 03:43:00;;;;;;;0.2;0.2;;;;;;;19.9;100.0;101140;;;;
2022/08/23 03:44:00;;;;;;;0.2;0.2;;;;;;;20.0;100.0;101140;;;;
2022/08/23 03:45:02;;;;;;;0.2;0.2;;;;;;;20.0;100.0;101140;;;;
2022/08/23 03:46:00;;;;;;;0.2;0.2;;;;;;;19.9;100.0;101150;;;;
2022/08/23 03:47:00;;;;;;;0.2;0.2;;;;;;;19.9;100.0;101150;;;;
2022/08/23 03:48:00;;;;;;;0.2;0.2;;;;;;;19.9;100.0;101150;;;;
2022/08/23 03:49:01;;;;;;;0.2;0.2;;;;;;;19.9;100.0;101150;;;;
2022/08/23 03:50:00;;;;;;;0.2;0.2;;;;;;;20.0;100.0;101150;;;;
2022/08/23 03:51:00;;;;;;;0.2;0.2;;;;;;;20.0;100.0;101150;;;;
2022/08/23 03:52:00;;;;;;;0.2;0.2;;;;;;;20.0;100.0;101140;;;;
2022/08/23 03:53:00;;;;;;;0.2;0.2;;;;;;;20.0;100.0;101140;;;;
2022/08/23 03:54:00;;;;;;;0.2;0.2;;;;;;;20.0;100.0;101140;;;;
2022/08/23 03:55:00;;;;;;;0.2;0.2;;;;;;;20.0;100.0;101140;;;;
2022/08/23 03:56:00;;;;;;;0.2;0.2;;;;;;;20.0;100.0;101150;;;;
2022/08/23 03:57:01;;;;;;;0.2;0.2;;;;;;;20.0;100.0;101150;;;;
2022/08/23 03:58:00;;;;;;;0.2;0.2;;;;;;;20.0;100.0;101140;;;;
2022/08/23 03:59:02;;;;;;;0.2;0.2;;;;;;;20.0;100.0;101140;;;;
2022/08/23 04:00:00;;;;;;;0.2;0.2;;;;;;;20.0;100.0;101150;;;;
2022/08/23 04:01:00;;;;;;;0.2;0.2;;;;;;;20.0;100.0;101150;;;;
2022/08/23 04:02:00;;;;;;;0.2;0.2;;;;;;;20.0;100.0;101150;;;;
2022/08/23 04:03:00;;;;;;;0.2;0.2;;;;;;;20.0;100.0;101150;;;;
2022/08/23 04:04:00;;;;;;;0.2;0.2;;;;;;;19.9;100.0;101150;;;;
2022/08/23 04:05:00;;;;;;;0.2;0.2;;;;;;;19.9;100.0;101150;;;;
2022/08/23 04:06:00;;;;;;;0.2;0.2;;;;;;;19.9;100.0;101150;;;;
2022/08/23 04:07:00;;;;;;;0.2;0.2;;;;;;;19.9;100.0;101150;;;;
2022/08/23 04:08:05;;;;;;;0.2;0.2;;;;;;;20.0;100.0;101160;;;;
2022/08/23 04:09:00;;;;;;;0.2;0.2;;;;;;;20.0;100.0;101160;;;;
2022/08/23 04:10:00;;;;;;;0.2;0.2;;;;;;;20.0;100.0;101160;;;;
2022/08/23 04:11:00;;;;;;;0.2;0.2;;;;;;;20.0;100.0;101160;;;;
2022/08/23 04:12:00;;;;;;;0.2;0.2;;;;;;;20.0;100.0;101150;;;;
2022/08/23 04:13:00;;;;;;;0.2;0.2;;;;;;;20.0;100.0;101150;;;;
2022/08/23 04:14:00;;;;;;;0.2;0.2;;;;;;;20.0;100.0;101150;;;;
2022/08/23 04:15:02;;;;;;;0.2;0.2;;;;;;;20.0;100.0;101150;;;;
2022/08/23 04:16:02;;;;;;;0.2;0.2;;;;;;;20.0;100.0;101150;;;;
2022/08/23 04:17:00;;;;;;;0.2;0.2;;;;;;;20.0;100.0;101150;;;;
2022/08/23 04:18:00;;;;;;;0.2;0.2;;;;;;;20.0;100.0;101150;;;;
2022/08/23 04:19:00;;;;;;;0.2;0.2;;;;;;;20.0;100.0;101150;;;;
2022/08/23 04:20:00;;;;;;;0.2;0.2;;;;;;;19.9;100.0;101160;;;;
2022/08/23 04:21:01;;;;;;;0.2;0.2;;;;;;;19.9;100.0;101160;;;;
2022/08/23 04:22:00;;;;;;;0.2;0.2;;;;;;;19.9;100.0;101160;;;;
2022/08/23 04:23:00;;;;;;;0.2;0.2;;;;;;;19.9;100.0;101160;;;;
2022/08/23 04:24:00;;;;;;;0.2;0.2;;;;;;;20.0;100.0;101160;;;;
2022/08/23 04:25:01;;;;;;;0.2;0.2;;;;;;;20.0;100.0;101160;;;;
2022/08/23 04:26:02;;;;;;;0.2;0.2;;;;;;;20.0;100.0;101160;;;;
2022/08/23 04:27:00;;;;;;;0.2;0.2;;;;;;;20.0;100.0;101160;;;;
2022/08/23 04:28:00;;;;;;;0.2;0.2;;;;;;;20.0;100.0;101150;;;;
2022/08/23 04:29:00;;;;;;;0.2;0.2;;;;;;;20.0;100.0;101150;;;;
2022/08/23 04:30:00;;;;;;;0.2;0.2;;;;;;;19.9;100.0;101160;;;;
2022/08/23 04:31:00;;;;;;;0.2;0.2;;;;;;;19.9;100.0;101160;;;;
2022/08/23 04:32:01;;;;;;;0.2;0.2;;;;;;;19.9;100.0;101150;;;;
2022/08/23 04:33:01;;;;;;;0.2;0.2;;;;;;;19.9;100.0;101150;;;;
2022/08/23 04:34:01;;;;;;;0.2;0.2;;;;;;;19.8;100.0;101160;;;;
2022/08/23 04:35:00;;;;;;;0.2;0.2;;;;;;;19.8;100.0;101160;;;;
2022/08/23 04:36:00;;;;;;;0.5;0.5;;;;;;;19.7;100.0;101150;;;;
2022/08/23 04:37:02;;;;;;;0.5;0.5;;;;;;;19.7;100.0;101150;;;;
2022/08/23 04:38:00;;;;;;;0.5;0.5;;;;;;;19.8;100.0;101160;;;;
2022/08/23 04:39:00;;;;;;;0.5;0.5;;;;;;;19.8;100.0;101160;;;;
2022/08/23 04:43:00;;;;;;;0.5;0.5;;;;;;;19.9;100.0;101160;;;;
2022/08/23 04:44:00;;;;;;;0.5;0.5;;;;;;;19.9;100.0;101160;;;;
2022/08/23 04:45:00;;;;;;;0.5;0.5;;;;;;;19.9;100.0;101160;;;;
2022/08/23 04:46:00;;;;;;;0.5;0.5;;;;;;;19.9;100.0;101160;;;;
2022/08/23 04:47:00;;;;;;;0.5;0.5;;;;;;;19.9;100.0;101160;;;;
2022/08/23 04:48:00;;;;;;;0.5;0.5;;;;;;;19.9;100.0;101160;;;;
2022/08/23 04:49:00;;;;;;;0.5;0.5;;;;;;;19.9;100.0;101160;;;;
2022/08/23 04:50:00;;;;;;;0.5;0.5;;;;;;;20.0;100.0;101160;;;;
2022/08/23 04:51:00;;;;;;;0.5;0.5;;;;;;;20.0;100.0;101160;;;;
2022/08/23 04:52:00;;;;;;;0.5;0.5;;;;;;;19.9;100.0;101160;;;;
2022/08/23 04:53:00;;;;;;;0.5;0.5;;;;;;;19.9;100.0;101160;;;;
2022/08/23 04:54:00;;;;;;;0.5;0.5;;;;;;;19.8;100.0;101160;;;;
2022/08/23 04:55:00;;;;;;;0.5;0.5;;;;;;;19.8;100.0;101160;;;;
2022/08/23 04:56:01;;;;;;;0.2;0.2;;;;;;;19.8;100.0;101170;;;;
2022/08/23 04:57:00;;;;;;;0.2;0.2;;;;;;;19.8;100.0;101170;;;;
2022/08/23 04:58:00;;;;;;;0.2;0.2;;;;;;;19.9;100.0;101170;;;;
2022/08/23 04:59:00;;;;;;;0.2;0.2;;;;;;;19.9;100.0;101170;;;;
2022/08/23 05:00:00;;;;;;;0.2;0.2;;;;;;;19.8;100.0;101170;;;;
2022/08/23 05:01:00;;;;;;;0.2;0.2;;;;;;;19.8;100.0;101170;;;;
2022/08/23 05:02:00;;;;;;;0.2;0.2;;;;;;;19.8;100.0;101180;;;;
2022/08/23 05:03:00;;;;;;;0.2;0.2;;;;;;;19.8;100.0;101180;;;;
2022/08/23 05:04:01;;;;;;;0.2;0.2;;;;;;;19.7;100.0;101180;;;;
2022/08/23 05:05:00;;;;;;;0.2;0.2;;;;;;;19.7;100.0;101180;;;;
2022/08/23 05:06:00;;;;;;;0.2;0.2;;;;;;;19.9;100.0;101170;;;;
2022/08/23 05:07:00;;;;;;;0.2;0.2;;;;;;;19.9;100.0;101170;;;;
2022/08/23 05:08:00;;;;;;;0.2;0.2;;;;;;;19.8;100.0;101180;;;;
2022/08/23 05:09:00;;;;;;;0.2;0.2;;;;;;;19.8;100.0;101180;;;;
2022/08/23 05:10:00;;;;;;;0.2;0.2;;;;;;;19.8;100.0;101180;;;;
2022/08/23 05:11:01;;;;;;;0.2;0.2;;;;;;;19.8;100.0;101180;;;;
2022/08/23 05:12:00;;;;;;;0.2;0.2;;;;;;;19.8;100.0;101170;;;;
2022/08/23 05:13:00;;;;;;;0.2;0.2;;;;;;;19.8;100.0;101170;;;;
2022/08/23 05:14:00;;;;;;;0.2;0.2;;;;;;;20.0;100.0;101180;;;;
2022/08/23 05:15:00;;;;;;;0.2;0.2;;;;;;;20.0;100.0;101180;;;;
2022/08/23 05:16:00;;;;;;;0.3;0.3;;;;;;;20.0;100.0;101180;;;;
2022/08/23 05:17:01;;;;;;;0.3;0.3;;;;;;;20.0;100.0;101180;;;;
2022/08/23 05:18:00;;;;;;;0.3;0.3;;;;;;;20.1;100.0;101180;;;;
2022/08/23 05:19:00;;;;;;;0.3;0.3;;;;;;;20.1;100.0;101180;;;;
2022/08/23 05:20:00;;;;;;;0.3;0.3;;;;;;;20.0;100.0;101180;;;;
2022/08/23 05:21:00;;;;;;;0.3;0.3;;;;;;;20.0;100.0;101180;;;;
2022/08/23 05:22:00;;;;;;;0.3;0.3;;;;;;;20.0;100.0;101180;;;;
2022/08/23 05:23:00;;;;;;;0.3;0.3;;;;;;;20.0;100.0;101180;;;;
2022/08/23 05:24:02;;;;;;;0.3;0.3;;;;;;;20.0;100.0;101180;;;;
2022/08/23 05:25:00;;;;;;;0.3;0.3;;;;;;;20.0;100.0;101180;;;;
2022/08/23 05:26:00;;;;;;;0.3;0.3;;;;;;;20.1;100.0;101180;;;;
2022/08/23 05:27:00;;;;;;;0.3;0.3;;;;;;;20.1;100.0;101180;;;;
2022/08/23 05:28:01;;;;;;;0.3;0.3;;;;;;;20.0;100.0;101180;;;;
2022/08/23 05:29:00;;;;;;;0.3;0.3;;;;;;;20.0;100.0;101180;;;;
2022/08/23 05:30:01;;;;;;;0.3;0.3;;;;;;;20.2;100.0;101180;;;;
2022/08/23 05:31:08;;;;;;;0.3;0.3;;;;;;;20.1;100.0;101180;;;;
2022/08/23 05:32:00;;;;;;;0.3;0.3;;;;;;;20.1;100.0;101180;;;;
2022/08/23 05:33:01;;;;;;;0.3;0.3;;;;;;;20.1;100.0;101180;;;;
2022/08/23 05:34:00;;;;;;;0.3;0.3;;;;;;;20.1;100.0;101180;;;;
2022/08/23 05:35:00;;;;;;;0.3;0.3;;;;;;;20.1;100.0;101180;;;;
2022/08/23 05:36:01;;;;;;;0.4;0.4;;;;;;;20.1;100.0;101180;;;;
2022/08/23 05:37:00;;;;;;;0.4;0.4;;;;;;;20.1;100.0;101180;;;;
2022/08/23 05:38:00;;;;;;;0.4;0.4;;;;;;;20.1;100.0;101180;;;;
2022/08/23 05:39:00;;;;;;;0.4;0.4;;;;;;;20.1;100.0;101180;;;;
2022/08/23 05:40:00;;;;;;;0.4;0.4;;;;;;;20.1;100.0;101190;;;;
2022/08/23 05:41:01;;;;;;;0.4;0.4;;;;;;;20.1;100.0;101190;;;;
2022/08/23 05:42:00;;;;;;;0.4;0.4;;;;;;;20.2;100.0;101190;;;;
2022/08/23 05:43:00;;;;;;;0.4;0.4;;;;;;;20.2;100.0;101190;;;;
2022/08/23 05:44:02;;;;;;;0.4;0.4;;;;;;;20.1;100.0;101190;;;;
2022/08/23 05:45:00;;;;;;;0.4;0.4;;;;;;;20.1;100.0;101190;;;;
2022/08/23 05:46:03;;;;;;;0.4;0.4;;;;;;;20.1;100.0;101200;;;;
2022/08/23 05:47:00;;;;;;;0.4;0.4;;;;;;;20.1;100.0;101200;;;;
2022/08/23 05:48:00;;;;;;;0.4;0.4;;;;;;;20.2;100.0;101210;;;;
2022/08/23 05:49:00;;;;;;;0.4;0.4;;;;;;;20.2;100.0;101210;;;;
2022/08/23 05:50:00;;;;;;;0.4;0.4;;;;;;;20.2;100.0;101210;;;;
2022/08/23 05:51:10;;;;;;;0.4;0.4;;;;;;;20.3;100.0;101210;;;;
2022/08/23 05:52:01;;;;;;;0.4;0.4;;;;;;;20.3;100.0;101210;;;;
2022/08/23 05:53:00;;;;;;;0.4;0.4;;;;;;;20.3;100.0;101210;;;;
2022/08/23 05:54:01;;;;;;;0.4;0.4;;;;;;;20.4;100.0;101220;;;;
2022/08/23 05:55:00;;;;;;;0.4;0.4;;;;;;;20.4;100.0;101220;;;;
2022/08/23 05:56:10;;;;;;;0.7;0.7;;;;;;;20.5;100.0;101220;;;;
2022/08/23 05:57:00;;;;;;;0.7;0.7;;;;;;;20.5;100.0;101220;;;;
2022/08/23 05:58:00;;;;;;;0.7;0.7;;;;;;;20.5;100.0;101220;;;;
2022/08/23 05:59:02;;;;;;;0.7;0.7;;;;;;;20.5;100.0;101220;;;;
2022/08/23 06:00:00;;;;;;;0.7;0.7;;;;;;;20.5;100.0;101220;;;;
2022/08/23 06:01:00;;;;;;;0.7;0.7;;;;;;;20.5;100.0;101220;;;;
2022/08/23 06:02:00;;;;;;;0.7;0.7;;;;;;;20.6;100.0;101220;;;;
2022/08/23 06:03:00;;;;;;;0.7;0.7;;;;;;;20.6;100.0;101220;;;;
2022/08/23 06:04:02;;;;;;;0.7;0.7;;;;;;;20.4;100.0;101220;;;;
2022/08/23 06:05:00;;;;;;;0.7;0.7;;;;;;;20.4;100.0;101220;;;;
2022/08/23 06:06:00;;;;;;;0.7;0.7;;;;;;;20.6;100.0;101220;;;;
2022/08/23 06:07:00;;;;;;;0.7;0.7;;;;;;;20.6;100.0;101220;;;;
2022/08/23 06:08:00;;;;;;;0.7;0.7;;;;;;;20.6;100.0;101220;;;;
2022/08/23 06:09:00;;;;;;;0.7;0.7;;;;;;;20.6;100.0;101220;;;;
2022/08/23 06:10:00;;;;;;;0.7;0.7;;;;;;;20.8;100.0;101230;;;;
2022/08/23 06:11:05;;;;;;;0.7;0.7;;;;;;;20.8;100.0;101230;;;;
2022/08/23 06:12:00;;;;;;;0.7;0.7;;;;;;;20.8;100.0;101220;;;;
2022/08/23 06:13:00;;;;;;;0.7;0.7;;;;;;;20.8;100.0;101220;;;;
2022/08/23 06:14:01;;;;;;;0.7;0.7;;;;;;;20.9;100.0;101220;;;;
2022/08/23 06:15:00;;;;;;;0.7;0.7;;;;;;;20.9;100.0;101220;;;;
2022/08/23 06:16:10;;;;;;;0.7;0.7;;;;;;;21.0;100.0;101230;;;;
2022/08/23 06:17:00;;;;;;;0.7;0.7;;;;;;;21.0;100.0;101230;;;;
2022/08/23 06:18:00;;;;;;;0.7;0.7;;;;;;;21.1;100.0;101230;;;;
2022/08/23 06:19:01;;;;;;;0.7;0.7;;;;;;;21.1;100.0;101230;;;;
2022/08/23 06:20:00;;;;;;;0.7;0.7;;;;;;;21.1;100.0;101230;;;;
2022/08/23 06:21:02;;;;;;;0.7;0.7;;;;;;;21.1;100.0;101230;;;;
2022/08/23 06:22:00;;;;;;;0.7;0.7;;;;;;;21.1;100.0;101230;;;;
2022/08/23 06:23:00;;;;;;;0.7;0.7;;;;;;;21.1;100.0;101230;;;;
2022/08/23 06:24:00;;;;;;;0.7;0.7;;;;;;;21.2;100.0;101230;;;;
2022/08/23 06:25:00;;;;;;;0.7;0.7;;;;;;;21.2;100.0;101230;;;;
2022/08/23 06:26:00;;;;;;;0.7;0.7;;;;;;;21.3;100.0;101230;;;;
2022/08/23 06:27:00;;;;;;;0.7;0.7;;;;;;;21.3;100.0;101230;;;;
2022/08/23 06:28:03;;;;;;;0.7;0.7;;;;;;;21.3;100.0;101230;;;;
2022/08/23 06:29:01;;;;;;;0.7;0.7;;;;;;;21.3;100.0;101230;;;;
2022/08/23 06:30:00;;;;;;;0.7;0.7;;;;;;;21.4;100.0;101230;;;;